sensor_id;sensor_type;location;lat;lon;timestamp;temperature;humidity
16076;DHT22;8142;48.242;11.644;2023-04-24T00:00:31;12.10;99.90
16076;DHT22;8142;48.242;11.644;2023-04-24T00:02:57;12.00;99.90
16076;DHT22;8142;48.242;11.644;2023-04-24T00:05:24;12.00;99.90
16076;DHT22;8142;48.242;11.644;2023-04-24T00:07:50;12.00;99.90
16076;DHT22;8142;48.242;11.644;2023-04-24T00:10:20;12.00;99.90
16076;DHT22;8142;48.242;11.644;2023-04-24T00:12:46;12.00;99.90
16076;DHT22;8142;48.242;11.644;2023-04-24T00:15:12;12.10;99.90
16076;DHT22;8142;48.242;11.644;2023-04-24T00:17:38;12.20;99.90
16076;DHT22;8142;48.242;11.644;2023-04-24T00:20:05;12.30;99.90
16076;DHT22;8142;48.242;11.644;2023-04-24T00:22:32;12.30;99.90
16076;DHT22;8142;48.242;11.644;2023-04-24T00:24:58;12.30;99.90
16076;DHT22;8142;48.242;11.644;2023-04-24T00:27:24;12.30;99.90
16076;DHT22;8142;48.242;11.644;2023-04-24T00:29:50;12.30;99.90
16076;DHT22;8142;48.242;11.644;2023-04-24T00:32:16;12.20;99.90
16076;DHT22;8142;48.242;11.644;2023-04-24T00:34:43;12.20;99.90
16076;DHT22;8142;48.242;11.644;2023-04-24T00:37:11;12.10;99.90
16076;DHT22;8142;48.242;11.644;2023-04-24T00:39:37;12.10;99.90
16076;DHT22;8142;48.242;11.644;2023-04-24T00:42:03;12.10;99.90
16076;DHT22;8142;48.242;11.644;2023-04-24T00:44:33;12.00;99.90
16076;DHT22;8142;48.242;11.644;2023-04-24T00:47:00;12.00;99.90
16076;DHT22;8142;48.242;11.644;2023-04-24T00:49:26;12.00;99.90
16076;DHT22;8142;48.242;11.644;2023-04-24T00:51:52;12.00;99.90
16076;DHT22;8142;48.242;11.644;2023-04-24T00:54:19;12.00;99.90
16076;DHT22;8142;48.242;11.644;2023-04-24T00:56:48;11.90;99.90
16076;DHT22;8142;48.242;11.644;2023-04-24T00:59:16;11.90;99.90
16076;DHT22;8142;48.242;11.644;2023-04-24T01:01:43;11.90;99.90
16076;DHT22;8142;48.242;11.644;2023-04-24T01:04:11;11.90;99.90
16076;DHT22;8142;48.242;11.644;2023-04-24T01:06:42;11.80;99.90
16076;DHT22;8142;48.242;11.644;2023-04-24T01:09:09;11.80;99.90
16076;DHT22;8142;48.242;11.644;2023-04-24T01:11:37;11.80;99.90
16076;DHT22;8142;48.242;11.644;2023-04-24T01:14:03;11.80;99.90
16076;DHT22;8142;48.242;11.644;2023-04-24T01:16:29;11.90;99.90
16076;DHT22;8142;48.242;11.644;2023-04-24T01:18:55;12.00;99.90
16076;DHT22;8142;48.242;11.644;2023-04-24T01:21:21;12.00;99.90
16076;DHT22;8142;48.242;11.644;2023-04-24T01:23:49;11.90;99.90
16076;DHT22;8142;48.242;11.644;2023-04-24T01:26:16;11.90;99.90
16076;DHT22;8142;48.242;11.644;2023-04-24T01:28:42;11.90;99.90
16076;DHT22;8142;48.242;11.644;2023-04-24T01:31:08;11.80;99.90
16076;DHT22;8142;48.242;11.644;2023-04-24T01:33:35;11.90;99.90
16076;DHT22;8142;48.242;11.644;2023-04-24T01:36:01;11.70;99.90
16076;DHT22;8142;48.242;11.644;2023-04-24T01:38:27;11.70;99.90
16076;DHT22;8142;48.242;11.644;2023-04-24T01:40:53;11.60;99.90
16076;DHT22;8142;48.242;11.644;2023-04-24T01:43:19;11.60;99.90
16076;DHT22;8142;48.242;11.644;2023-04-24T01:45:45;11.70;99.90
16076;DHT22;8142;48.242;11.644;2023-04-24T01:48:12;11.80;99.90
16076;DHT22;8142;48.242;11.644;2023-04-24T01:50:41;11.90;99.90
16076;DHT22;8142;48.242;11.644;2023-04-24T01:53:07;11.90;99.90
16076;DHT22;8142;48.242;11.644;2023-04-24T01:55:33;11.90;99.90
16076;DHT22;8142;48.242;11.644;2023-04-24T01:57:59;11.90;99.90
16076;DHT22;8142;48.242;11.644;2023-04-24T02:00:26;11.80;99.90
16076;DHT22;8142;48.242;11.644;2023-04-24T02:02:52;11.80;99.90
16076;DHT22;8142;48.242;11.644;2023-04-24T02:05:18;11.80;99.90
16076;DHT22;8142;48.242;11.644;2023-04-24T02:07:44;11.70;99.90
16076;DHT22;8142;48.242;11.644;2023-04-24T02:10:10;11.60;99.90
16076;DHT22;8142;48.242;11.644;2023-04-24T02:12:36;11.60;99.90
16076;DHT22;8142;48.242;11.644;2023-04-24T02:15:02;11.50;99.90
16076;DHT22;8142;48.242;11.644;2023-04-24T02:17:29;11.70;99.90
16076;DHT22;8142;48.242;11.644;2023-04-24T02:19:56;11.80;99.90
16076;DHT22;8142;48.242;11.644;2023-04-24T02:22:22;11.70;99.90
16076;DHT22;8142;48.242;11.644;2023-04-24T02:24:48;11.70;99.90
16076;DHT22;8142;48.242;11.644;2023-04-24T02:27:14;11.70;99.90
16076;DHT22;8142;48.242;11.644;2023-04-24T02:29:40;11.60;99.90
16076;DHT22;8142;48.242;11.644;2023-04-24T02:32:06;11.60;99.90
16076;DHT22;8142;48.242;11.644;2023-04-24T02:34:32;11.50;99.90
16076;DHT22;8142;48.242;11.644;2023-04-24T02:36:58;11.50;99.90
16076;DHT22;8142;48.242;11.644;2023-04-24T02:39:24;11.40;99.90
16076;DHT22;8142;48.242;11.644;2023-04-24T02:41:49;11.40;99.90
16076;DHT22;8142;48.242;11.644;2023-04-24T02:44:15;11.40;99.90
16076;DHT22;8142;48.242;11.644;2023-04-24T02:46:43;11.50;99.90
16076;DHT22;8142;48.242;11.644;2023-04-24T02:49:09;11.70;99.90
16076;DHT22;8142;48.242;11.644;2023-04-24T02:51:34;11.70;99.90
16076;DHT22;8142;48.242;11.644;2023-04-24T02:54:03;11.70;99.90
16076;DHT22;8142;48.242;11.644;2023-04-24T02:56:29;11.60;99.90
16076;DHT22;8142;48.242;11.644;2023-04-24T02:58:55;11.60;99.90
16076;DHT22;8142;48.242;11.644;2023-04-24T03:01:21;11.50;99.90
16076;DHT22;8142;48.242;11.644;2023-04-24T03:03:47;11.50;99.90
16076;DHT22;8142;48.242;11.644;2023-04-24T03:06:12;11.40;99.90
16076;DHT22;8142;48.242;11.644;2023-04-24T03:08:38;11.20;99.90
16076;DHT22;8142;48.242;11.644;2023-04-24T03:11:04;11.10;99.90
16076;DHT22;8142;48.242;11.644;2023-04-24T03:13:30;10.90;99.90
16076;DHT22;8142;48.242;11.644;2023-04-24T03:15:56;10.70;99.90
16076;DHT22;8142;48.242;11.644;2023-04-24T03:18:22;10.60;99.90
16076;DHT22;8142;48.242;11.644;2023-04-24T03:20:48;10.50;99.90
16076;DHT22;8142;48.242;11.644;2023-04-24T03:23:14;10.40;99.90
16076;DHT22;8142;48.242;11.644;2023-04-24T03:25:40;10.30;99.90
16076;DHT22;8142;48.242;11.644;2023-04-24T03:28:08;10.20;99.90
16076;DHT22;8142;48.242;11.644;2023-04-24T03:30:34;10.10;99.90
16076;DHT22;8142;48.242;11.644;2023-04-24T03:33:00;10.10;99.90
16076;DHT22;8142;48.242;11.644;2023-04-24T03:35:26;10.00;99.90
16076;DHT22;8142;48.242;11.644;2023-04-24T03:37:52;10.00;99.90
16076;DHT22;8142;48.242;11.644;2023-04-24T03:40:18;10.00;99.90
16076;DHT22;8142;48.242;11.644;2023-04-24T03:42:44;9.90;99.90
16076;DHT22;8142;48.242;11.644;2023-04-24T03:45:10;9.90;99.90
16076;DHT22;8142;48.242;11.644;2023-04-24T03:47:36;9.80;99.90
16076;DHT22;8142;48.242;11.644;2023-04-24T03:50:02;9.80;99.90
16076;DHT22;8142;48.242;11.644;2023-04-24T03:52:28;9.80;99.90
16076;DHT22;8142;48.242;11.644;2023-04-24T03:54:54;9.80;99.90
16076;DHT22;8142;48.242;11.644;2023-04-24T03:57:21;9.70;99.90
16076;DHT22;8142;48.242;11.644;2023-04-24T03:59:47;9.70;99.90
16076;DHT22;8142;48.242;11.644;2023-04-24T04:02:13;9.60;99.90
16076;DHT22;8142;48.242;11.644;2023-04-24T04:04:38;9.60;99.90
16076;DHT22;8142;48.242;11.644;2023-04-24T04:07:04;9.60;99.90
16076;DHT22;8142;48.242;11.644;2023-04-24T04:09:31;9.60;99.90
16076;DHT22;8142;48.242;11.644;2023-04-24T04:11:58;9.60;99.90
16076;DHT22;8142;48.242;11.644;2023-04-24T04:14:24;9.60;99.90
16076;DHT22;8142;48.242;11.644;2023-04-24T04:16:50;9.70;99.90
16076;DHT22;8142;48.242;11.644;2023-04-24T04:19:16;9.80;99.90
16076;DHT22;8142;48.242;11.644;2023-04-24T04:21:41;9.90;99.90
16076;DHT22;8142;48.242;11.644;2023-04-24T04:24:07;9.90;99.90
16076;DHT22;8142;48.242;11.644;2023-04-24T04:26:33;10.00;99.90
16076;DHT22;8142;48.242;11.644;2023-04-24T04:28:59;10.00;99.90
16076;DHT22;8142;48.242;11.644;2023-04-24T04:31:29;10.10;99.90
16076;DHT22;8142;48.242;11.644;2023-04-24T04:33:55;10.20;99.90
16076;DHT22;8142;48.242;11.644;2023-04-24T04:36:21;10.20;99.90
16076;DHT22;8142;48.242;11.644;2023-04-24T04:38:47;10.20;99.90
16076;DHT22;8142;48.242;11.644;2023-04-24T04:41:14;10.30;99.90
16076;DHT22;8142;48.242;11.644;2023-04-24T04:43:40;10.30;99.90
16076;DHT22;8142;48.242;11.644;2023-04-24T04:46:08;10.50;99.90
16076;DHT22;8142;48.242;11.644;2023-04-24T04:48:36;10.70;99.90
16076;DHT22;8142;48.242;11.644;2023-04-24T04:51:02;10.70;99.90
16076;DHT22;8142;48.242;11.644;2023-04-24T04:53:28;11.00;99.90
16076;DHT22;8142;48.242;11.644;2023-04-24T04:55:54;11.10;99.90
16076;DHT22;8142;48.242;11.644;2023-04-24T04:58:20;11.10;99.90
16076;DHT22;8142;48.242;11.644;2023-04-24T05:00:46;11.10;99.90
16076;DHT22;8142;48.242;11.644;2023-04-24T05:03:11;11.10;99.90
16076;DHT22;8142;48.242;11.644;2023-04-24T05:05:37;11.10;99.90
16076;DHT22;8142;48.242;11.644;2023-04-24T05:08:07;11.10;99.90
16076;DHT22;8142;48.242;11.644;2023-04-24T05:10:33;11.00;99.90
16076;DHT22;8142;48.242;11.644;2023-04-24T05:12:59;10.90;99.90
16076;DHT22;8142;48.242;11.644;2023-04-24T05:15:26;10.90;99.90
16076;DHT22;8142;48.242;11.644;2023-04-24T05:17:52;10.80;99.90
16076;DHT22;8142;48.242;11.644;2023-04-24T05:20:18;10.80;99.90
16076;DHT22;8142;48.242;11.644;2023-04-24T05:22:44;10.80;99.90
16076;DHT22;8142;48.242;11.644;2023-04-24T05:25:09;10.70;99.90
16076;DHT22;8142;48.242;11.644;2023-04-24T05:27:35;10.70;99.90
16076;DHT22;8142;48.242;11.644;2023-04-24T05:30:01;10.70;99.90
16076;DHT22;8142;48.242;11.644;2023-04-24T05:32:28;10.60;99.90
16076;DHT22;8142;48.242;11.644;2023-04-24T05:34:54;10.60;99.90
16076;DHT22;8142;48.242;11.644;2023-04-24T05:37:19;10.70;99.90
16076;DHT22;8142;48.242;11.644;2023-04-24T05:39:46;10.70;99.90
16076;DHT22;8142;48.242;11.644;2023-04-24T05:42:11;10.70;99.90
16076;DHT22;8142;48.242;11.644;2023-04-24T05:44:37;10.70;99.90
16076;DHT22;8142;48.242;11.644;2023-04-24T05:47:03;10.70;99.90
16076;DHT22;8142;48.242;11.644;2023-04-24T05:49:29;10.70;99.90
16076;DHT22;8142;48.242;11.644;2023-04-24T05:51:55;10.70;99.90
16076;DHT22;8142;48.242;11.644;2023-04-24T05:54:21;10.70;99.90
16076;DHT22;8142;48.242;11.644;2023-04-24T05:56:47;10.70;99.90
16076;DHT22;8142;48.242;11.644;2023-04-24T05:59:12;10.70;99.90
16076;DHT22;8142;48.242;11.644;2023-04-24T06:01:38;10.70;99.90
16076;DHT22;8142;48.242;11.644;2023-04-24T06:04:04;10.70;99.90
16076;DHT22;8142;48.242;11.644;2023-04-24T06:06:31;10.80;99.90
16076;DHT22;8142;48.242;11.644;2023-04-24T06:08:58;10.80;99.90
16076;DHT22;8142;48.242;11.644;2023-04-24T06:11:24;10.80;99.90
16076;DHT22;8142;48.242;11.644;2023-04-24T06:13:50;10.80;99.90
16076;DHT22;8142;48.242;11.644;2023-04-24T06:16:17;10.80;99.90
16076;DHT22;8142;48.242;11.644;2023-04-24T06:18:43;10.90;99.90
16076;DHT22;8142;48.242;11.644;2023-04-24T06:21:09;10.90;99.90
16076;DHT22;8142;48.242;11.644;2023-04-24T06:23:35;10.90;99.90
16076;DHT22;8142;48.242;11.644;2023-04-24T06:26:01;10.90;99.90
16076;DHT22;8142;48.242;11.644;2023-04-24T06:28:26;10.80;99.90
16076;DHT22;8142;48.242;11.644;2023-04-24T06:30:52;10.80;99.90
16076;DHT22;8142;48.242;11.644;2023-04-24T06:33:18;10.80;99.90
16076;DHT22;8142;48.242;11.644;2023-04-24T06:35:44;10.80;99.90
16076;DHT22;8142;48.242;11.644;2023-04-24T06:38:10;10.80;99.90
16076;DHT22;8142;48.242;11.644;2023-04-24T06:40:37;10.80;99.90
16076;DHT22;8142;48.242;11.644;2023-04-24T06:43:02;10.80;99.90
16076;DHT22;8142;48.242;11.644;2023-04-24T06:45:29;10.80;99.90
16076;DHT22;8142;48.242;11.644;2023-04-24T06:47:55;10.80;99.90
16076;DHT22;8142;48.242;11.644;2023-04-24T06:50:22;10.80;99.90
16076;DHT22;8142;48.242;11.644;2023-04-24T06:52:48;10.80;99.90
16076;DHT22;8142;48.242;11.644;2023-04-24T06:55:13;10.80;99.90
16076;DHT22;8142;48.242;11.644;2023-04-24T06:57:42;10.90;99.90
16076;DHT22;8142;48.242;11.644;2023-04-24T07:00:13;10.80;99.90
16076;DHT22;8142;48.242;11.644;2023-04-24T07:02:39;10.90;99.90
16076;DHT22;8142;48.242;11.644;2023-04-24T07:05:05;10.90;99.90
16076;DHT22;8142;48.242;11.644;2023-04-24T07:07:31;11.00;99.90
16076;DHT22;8142;48.242;11.644;2023-04-24T07:09:57;11.00;99.90
16076;DHT22;8142;48.242;11.644;2023-04-24T07:12:23;11.10;99.90
16076;DHT22;8142;48.242;11.644;2023-04-24T07:14:50;11.30;99.90
16076;DHT22;8142;48.242;11.644;2023-04-24T07:17:16;11.30;99.90
16076;DHT22;8142;48.242;11.644;2023-04-24T07:19:42;11.50;99.90
16076;DHT22;8142;48.242;11.644;2023-04-24T07:22:08;11.60;99.90
16076;DHT22;8142;48.242;11.644;2023-04-24T07:24:37;11.80;99.90
16076;DHT22;8142;48.242;11.644;2023-04-24T07:27:03;12.00;99.90
16076;DHT22;8142;48.242;11.644;2023-04-24T07:29:29;12.10;99.90
16076;DHT22;8142;48.242;11.644;2023-04-24T07:31:55;12.30;99.90
16076;DHT22;8142;48.242;11.644;2023-04-24T07:34:22;12.40;99.90
16076;DHT22;8142;48.242;11.644;2023-04-24T07:36:48;12.40;99.90
16076;DHT22;8142;48.242;11.644;2023-04-24T07:39:13;12.50;99.90
16076;DHT22;8142;48.242;11.644;2023-04-24T07:41:39;12.50;99.90
16076;DHT22;8142;48.242;11.644;2023-04-24T07:44:06;12.50;99.90
16076;DHT22;8142;48.242;11.644;2023-04-24T07:46:32;12.60;99.90
16076;DHT22;8142;48.242;11.644;2023-04-24T07:48:58;12.60;99.90
16076;DHT22;8142;48.242;11.644;2023-04-24T07:51:25;12.60;99.90
16076;DHT22;8142;48.242;11.644;2023-04-24T07:53:53;12.60;99.90
16076;DHT22;8142;48.242;11.644;2023-04-24T07:56:21;12.60;99.90
16076;DHT22;8142;48.242;11.644;2023-04-24T07:58:46;12.60;99.90
16076;DHT22;8142;48.242;11.644;2023-04-24T08:01:12;12.50;99.90
16076;DHT22;8142;48.242;11.644;2023-04-24T08:03:38;12.50;99.90
16076;DHT22;8142;48.242;11.644;2023-04-24T08:06:04;12.50;99.90
16076;DHT22;8142;48.242;11.644;2023-04-24T08:08:30;12.40;99.90
16076;DHT22;8142;48.242;11.644;2023-04-24T08:10:56;12.40;99.90
16076;DHT22;8142;48.242;11.644;2023-04-24T08:13:22;12.40;99.90
16076;DHT22;8142;48.242;11.644;2023-04-24T08:15:48;12.40;99.90
16076;DHT22;8142;48.242;11.644;2023-04-24T08:18:14;12.30;99.90
16076;DHT22;8142;48.242;11.644;2023-04-24T08:20:41;12.30;99.90
16076;DHT22;8142;48.242;11.644;2023-04-24T08:23:07;12.40;99.90
16076;DHT22;8142;48.242;11.644;2023-04-24T08:25:33;12.40;99.90
16076;DHT22;8142;48.242;11.644;2023-04-24T08:28:02;12.40;99.90
16076;DHT22;8142;48.242;11.644;2023-04-24T08:30:29;12.40;99.90
16076;DHT22;8142;48.242;11.644;2023-04-24T08:32:56;12.30;99.90
16076;DHT22;8142;48.242;11.644;2023-04-24T08:35:22;12.30;99.90
16076;DHT22;8142;48.242;11.644;2023-04-24T08:37:49;12.30;99.90
16076;DHT22;8142;48.242;11.644;2023-04-24T08:40:16;12.20;99.90
16076;DHT22;8142;48.242;11.644;2023-04-24T08:42:44;12.10;99.90
16076;DHT22;8142;48.242;11.644;2023-04-24T08:45:12;12.10;99.90
16076;DHT22;8142;48.242;11.644;2023-04-24T08:47:39;12.00;99.90
16076;DHT22;8142;48.242;11.644;2023-04-24T08:50:07;11.90;99.90
16076;DHT22;8142;48.242;11.644;2023-04-24T08:52:34;11.80;99.90
16076;DHT22;8142;48.242;11.644;2023-04-24T08:55:00;11.70;99.90
16076;DHT22;8142;48.242;11.644;2023-04-24T08:57:29;11.70;99.90
16076;DHT22;8142;48.242;11.644;2023-04-24T08:59:58;11.70;99.90
16076;DHT22;8142;48.242;11.644;2023-04-24T09:02:26;11.70;99.90
16076;DHT22;8142;48.242;11.644;2023-04-24T09:04:52;11.70;99.90
16076;DHT22;8142;48.242;11.644;2023-04-24T09:07:19;11.80;99.90
16076;DHT22;8142;48.242;11.644;2023-04-24T09:09:48;11.80;99.90
16076;DHT22;8142;48.242;11.644;2023-04-24T09:12:17;11.80;99.90
16076;DHT22;8142;48.242;11.644;2023-04-24T09:14:43;11.80;99.90
16076;DHT22;8142;48.242;11.644;2023-04-24T09:17:11;11.80;99.90
16076;DHT22;8142;48.242;11.644;2023-04-24T09:19:37;11.80;99.90
16076;DHT22;8142;48.242;11.644;2023-04-24T09:22:07;11.80;99.90
16076;DHT22;8142;48.242;11.644;2023-04-24T09:24:34;11.80;99.90
16076;DHT22;8142;48.242;11.644;2023-04-24T09:27:00;11.90;99.90
16076;DHT22;8142;48.242;11.644;2023-04-24T09:29:29;11.90;99.90
16076;DHT22;8142;48.242;11.644;2023-04-24T09:31:57;11.90;99.90
16076;DHT22;8142;48.242;11.644;2023-04-24T09:34:25;12.00;99.90
16076;DHT22;8142;48.242;11.644;2023-04-24T09:36:51;12.10;99.90
16076;DHT22;8142;48.242;11.644;2023-04-24T09:39:18;12.10;99.90
16076;DHT22;8142;48.242;11.644;2023-04-24T09:41:49;12.20;99.90
16076;DHT22;8142;48.242;11.644;2023-04-24T09:44:23;12.20;99.90
16076;DHT22;8142;48.242;11.644;2023-04-24T09:46:52;12.30;99.90
16076;DHT22;8142;48.242;11.644;2023-04-24T09:49:26;12.30;99.90
16076;DHT22;8142;48.242;11.644;2023-04-24T09:52:01;12.30;99.90
16076;DHT22;8142;48.242;11.644;2023-04-24T09:54:28;12.40;99.90
16076;DHT22;8142;48.242;11.644;2023-04-24T09:56:55;12.40;99.90
16076;DHT22;8142;48.242;11.644;2023-04-24T09:59:22;12.50;99.90
16076;DHT22;8142;48.242;11.644;2023-04-24T10:01:48;12.60;99.90
16076;DHT22;8142;48.242;11.644;2023-04-24T10:06:43;12.60;99.90
16076;DHT22;8142;48.242;11.644;2023-04-24T10:09:09;12.70;99.90
16076;DHT22;8142;48.242;11.644;2023-04-24T10:11:41;12.70;99.90
16076;DHT22;8142;48.242;11.644;2023-04-24T10:14:10;12.70;99.90
16076;DHT22;8142;48.242;11.644;2023-04-24T10:16:37;12.80;99.90
16076;DHT22;8142;48.242;11.644;2023-04-24T10:19:03;12.80;99.90
16076;DHT22;8142;48.242;11.644;2023-04-24T10:21:30;12.80;99.90
16076;DHT22;8142;48.242;11.644;2023-04-24T10:23:57;12.90;99.90
16076;DHT22;8142;48.242;11.644;2023-04-24T10:26:23;12.90;99.90
16076;DHT22;8142;48.242;11.644;2023-04-24T10:28:49;12.90;99.90
16076;DHT22;8142;48.242;11.644;2023-04-24T10:31:16;13.00;99.90
16076;DHT22;8142;48.242;11.644;2023-04-24T10:33:43;13.00;99.90
16076;DHT22;8142;48.242;11.644;2023-04-24T10:36:12;13.00;99.90
16076;DHT22;8142;48.242;11.644;2023-04-24T10:38:41;13.00;99.90
16076;DHT22;8142;48.242;11.644;2023-04-24T10:41:11;13.10;99.90
16076;DHT22;8142;48.242;11.644;2023-04-24T10:44:03;13.10;99.90
16076;DHT22;8142;48.242;11.644;2023-04-24T10:46:30;13.20;99.90
16076;DHT22;8142;48.242;11.644;2023-04-24T10:48:56;13.30;99.90
16076;DHT22;8142;48.242;11.644;2023-04-24T10:51:24;13.30;99.90
16076;DHT22;8142;48.242;11.644;2023-04-24T10:53:51;13.40;99.90
16076;DHT22;8142;48.242;11.644;2023-04-24T10:56:17;13.40;99.90
16076;DHT22;8142;48.242;11.644;2023-04-24T10:58:51;13.60;99.90
16076;DHT22;8142;48.242;11.644;2023-04-24T11:01:26;13.40;99.90
16076;DHT22;8142;48.242;11.644;2023-04-24T11:03:59;13.50;99.90
16076;DHT22;8142;48.242;11.644;2023-04-24T11:06:33;13.30;99.90
16076;DHT22;8142;48.242;11.644;2023-04-24T11:09:09;13.10;99.90
16076;DHT22;8142;48.242;11.644;2023-04-24T11:11:43;12.90;99.90
16076;DHT22;8142;48.242;11.644;2023-04-24T11:14:10;12.70;99.90
16076;DHT22;8142;48.242;11.644;2023-04-24T11:16:43;12.50;99.90
16076;DHT22;8142;48.242;11.644;2023-04-24T11:27:07;12.20;99.90
16076;DHT22;8142;48.242;11.644;2023-04-24T11:34:49;12.40;99.90
16076;DHT22;8142;48.242;11.644;2023-04-24T11:37:16;12.30;99.90
16076;DHT22;8142;48.242;11.644;2023-04-24T11:39:42;12.40;99.90
16076;DHT22;8142;48.242;11.644;2023-04-24T11:42:14;12.50;99.90
16076;DHT22;8142;48.242;11.644;2023-04-24T11:44:42;12.50;99.90
16076;DHT22;8142;48.242;11.644;2023-04-24T11:47:08;12.50;99.90
16076;DHT22;8142;48.242;11.644;2023-04-24T11:49:36;12.40;99.90
16076;DHT22;8142;48.242;11.644;2023-04-24T11:52:03;12.40;99.90
16076;DHT22;8142;48.242;11.644;2023-04-24T11:54:29;12.50;99.90
16076;DHT22;8142;48.242;11.644;2023-04-24T11:56:56;12.40;99.90
16076;DHT22;8142;48.242;11.644;2023-04-24T11:59:22;12.50;99.90
16076;DHT22;8142;48.242;11.644;2023-04-24T12:01:49;12.50;99.90
16076;DHT22;8142;48.242;11.644;2023-04-24T12:04:16;12.60;99.90
16076;DHT22;8142;48.242;11.644;2023-04-24T12:06:59;12.60;99.90
16076;DHT22;8142;48.242;11.644;2023-04-24T12:09:25;12.70;99.90
16076;DHT22;8142;48.242;11.644;2023-04-24T12:11:55;12.80;99.90
16076;DHT22;8142;48.242;11.644;2023-04-24T12:14:23;12.90;99.90
16076;DHT22;8142;48.242;11.644;2023-04-24T12:16:50;12.90;99.90
16076;DHT22;8142;48.242;11.644;2023-04-24T12:19:23;13.00;99.90
16076;DHT22;8142;48.242;11.644;2023-04-24T12:22:02;13.00;99.90
16076;DHT22;8142;48.242;11.644;2023-04-24T12:24:29;13.00;99.90
16076;DHT22;8142;48.242;11.644;2023-04-24T12:26:56;13.00;99.90
16076;DHT22;8142;48.242;11.644;2023-04-24T12:29:24;13.00;99.90
16076;DHT22;8142;48.242;11.644;2023-04-24T12:31:51;13.10;99.90
16076;DHT22;8142;48.242;11.644;2023-04-24T12:34:21;13.20;99.90
16076;DHT22;8142;48.242;11.644;2023-04-24T12:36:48;13.20;99.90
16076;DHT22;8142;48.242;11.644;2023-04-24T12:39:15;13.20;99.90
16076;DHT22;8142;48.242;11.644;2023-04-24T12:41:57;13.30;99.90
16076;DHT22;8142;48.242;11.644;2023-04-24T12:44:32;13.30;99.90
16076;DHT22;8142;48.242;11.644;2023-04-24T12:47:03;13.40;99.90
16076;DHT22;8142;48.242;11.644;2023-04-24T12:49:30;13.40;99.90
16076;DHT22;8142;48.242;11.644;2023-04-24T12:51:56;13.50;99.90
16076;DHT22;8142;48.242;11.644;2023-04-24T12:54:22;13.50;99.90
16076;DHT22;8142;48.242;11.644;2023-04-24T12:56:48;13.60;99.90
16076;DHT22;8142;48.242;11.644;2023-04-24T12:59:14;13.70;99.90
16076;DHT22;8142;48.242;11.644;2023-04-24T13:01:41;13.70;99.90
16076;DHT22;8142;48.242;11.644;2023-04-24T13:04:06;13.70;99.90
16076;DHT22;8142;48.242;11.644;2023-04-24T13:06:32;13.70;99.90
16076;DHT22;8142;48.242;11.644;2023-04-24T13:09:00;13.60;99.90
16076;DHT22;8142;48.242;11.644;2023-04-24T13:11:25;13.60;99.90
16076;DHT22;8142;48.242;11.644;2023-04-24T13:13:51;13.60;99.90
16076;DHT22;8142;48.242;11.644;2023-04-24T13:16:17;13.60;99.90
16076;DHT22;8142;48.242;11.644;2023-04-24T13:18:43;13.60;99.90
16076;DHT22;8142;48.242;11.644;2023-04-24T13:21:09;13.60;99.90
16076;DHT22;8142;48.242;11.644;2023-04-24T13:23:35;13.70;99.90
16076;DHT22;8142;48.242;11.644;2023-04-24T13:26:01;13.50;99.90
16076;DHT22;8142;48.242;11.644;2023-04-24T13:28:27;13.60;99.90
16076;DHT22;8142;48.242;11.644;2023-04-24T13:30:53;13.60;99.90
16076;DHT22;8142;48.242;11.644;2023-04-24T13:33:19;13.70;99.90
16076;DHT22;8142;48.242;11.644;2023-04-24T13:35:45;13.70;99.90
16076;DHT22;8142;48.242;11.644;2023-04-24T13:38:11;13.70;99.90
16076;DHT22;8142;48.242;11.644;2023-04-24T13:40:37;13.70;99.90
16076;DHT22;8142;48.242;11.644;2023-04-24T13:43:03;13.70;99.90
16076;DHT22;8142;48.242;11.644;2023-04-24T13:45:29;13.60;99.90
16076;DHT22;8142;48.242;11.644;2023-04-24T13:47:55;13.70;99.90
16076;DHT22;8142;48.242;11.644;2023-04-24T13:50:22;13.70;99.90
16076;DHT22;8142;48.242;11.644;2023-04-24T13:52:48;13.80;99.90
16076;DHT22;8142;48.242;11.644;2023-04-24T13:55:15;13.70;99.90
16076;DHT22;8142;48.242;11.644;2023-04-24T13:57:40;13.70;99.90
16076;DHT22;8142;48.242;11.644;2023-04-24T14:00:07;13.50;99.90
16076;DHT22;8142;48.242;11.644;2023-04-24T14:02:36;13.60;99.90
16076;DHT22;8142;48.242;11.644;2023-04-24T14:05:02;13.60;99.90
16076;DHT22;8142;48.242;11.644;2023-04-24T14:07:29;13.50;99.90
16076;DHT22;8142;48.242;11.644;2023-04-24T14:09:55;13.50;99.90
16076;DHT22;8142;48.242;11.644;2023-04-24T14:12:22;13.50;99.90
16076;DHT22;8142;48.242;11.644;2023-04-24T14:14:48;13.60;99.90
16076;DHT22;8142;48.242;11.644;2023-04-24T14:17:14;13.60;99.90
16076;DHT22;8142;48.242;11.644;2023-04-24T14:19:40;13.60;99.90
16076;DHT22;8142;48.242;11.644;2023-04-24T14:22:06;13.60;99.90
16076;DHT22;8142;48.242;11.644;2023-04-24T14:24:32;13.70;99.90
16076;DHT22;8142;48.242;11.644;2023-04-24T14:26:58;13.70;99.90
16076;DHT22;8142;48.242;11.644;2023-04-24T14:29:24;13.70;99.90
16076;DHT22;8142;48.242;11.644;2023-04-24T14:31:51;13.70;99.90
16076;DHT22;8142;48.242;11.644;2023-04-24T14:34:17;13.70;99.90
16076;DHT22;8142;48.242;11.644;2023-04-24T14:36:43;13.70;99.90
16076;DHT22;8142;48.242;11.644;2023-04-24T14:39:09;13.70;99.90
16076;DHT22;8142;48.242;11.644;2023-04-24T14:41:35;13.70;99.90
16076;DHT22;8142;48.242;11.644;2023-04-24T14:44:03;13.70;99.90
16076;DHT22;8142;48.242;11.644;2023-04-24T14:46:32;13.90;99.90
16076;DHT22;8142;48.242;11.644;2023-04-24T14:48:58;13.90;99.90
16076;DHT22;8142;48.242;11.644;2023-04-24T14:51:24;14.00;99.90
16076;DHT22;8142;48.242;11.644;2023-04-24T14:53:51;14.00;99.90
16076;DHT22;8142;48.242;11.644;2023-04-24T14:56:17;14.00;99.90
16076;DHT22;8142;48.242;11.644;2023-04-24T14:58:43;14.00;99.90
16076;DHT22;8142;48.242;11.644;2023-04-24T15:01:09;14.00;99.90
16076;DHT22;8142;48.242;11.644;2023-04-24T15:03:35;14.00;99.90
16076;DHT22;8142;48.242;11.644;2023-04-24T15:06:00;13.90;99.90
16076;DHT22;8142;48.242;11.644;2023-04-24T15:08:27;13.90;99.90
16076;DHT22;8142;48.242;11.644;2023-04-24T15:10:53;13.80;99.90
16076;DHT22;8142;48.242;11.644;2023-04-24T15:13:19;13.70;99.90
16076;DHT22;8142;48.242;11.644;2023-04-24T15:15:48;13.60;99.90
16076;DHT22;8142;48.242;11.644;2023-04-24T15:18:15;13.60;99.90
16076;DHT22;8142;48.242;11.644;2023-04-24T15:20:40;13.50;99.90
16076;DHT22;8142;48.242;11.644;2023-04-24T15:23:09;13.40;99.90
16076;DHT22;8142;48.242;11.644;2023-04-24T15:25:37;13.40;99.90
16076;DHT22;8142;48.242;11.644;2023-04-24T15:28:04;13.30;99.90
16076;DHT22;8142;48.242;11.644;2023-04-24T15:30:31;13.30;99.90
16076;DHT22;8142;48.242;11.644;2023-04-24T15:32:57;13.20;99.90
16076;DHT22;8142;48.242;11.644;2023-04-24T15:35:23;13.10;99.90
16076;DHT22;8142;48.242;11.644;2023-04-24T15:37:49;13.10;99.90
16076;DHT22;8142;48.242;11.644;2023-04-24T15:40:14;13.00;99.90
16076;DHT22;8142;48.242;11.644;2023-04-24T15:42:42;13.00;99.90
16076;DHT22;8142;48.242;11.644;2023-04-24T15:45:09;13.00;99.90